Time;durP1;ratioP1;P1;durP2;ratioP2;P2;SDS_P1;SDS_P2;PMS_P1;PMS_P2;Temp;Humidity;BMP_temperature;BMP_pressure;BME280_temperature;BME280_humidity;BME280_pressure;Samples;Min_cycle;Max_cycle;Signal;HPM_P1;HPM_P2
2022/03/17 00:02:23;;;;;;;40.90;17.20;;;6.30;97.30;;;;;;5030731;28;20176;-85
2022/03/17 00:04:50;;;;;;;40.23;17.47;;;6.30;97.30;;;;;;5030891;28;20172;-85
2022/03/17 00:07:15;;;;;;;45.57;18.07;;;6.30;97.30;;;;;;5030772;28;20427;-85
2022/03/17 00:09:41;;;;;;;44.40;16.60;;;6.40;97.30;;;;;;5030153;28;20421;-85
2022/03/17 00:12:08;;;;;;;46.17;18.83;;;6.40;97.30;;;;;;5029941;28;20752;-85
2022/03/17 00:14:34;;;;;;;42.93;19.20;;;6.40;97.30;;;;;;5030725;28;20193;-85
2022/03/17 00:17:00;;;;;;;43.60;17.70;;;6.40;97.30;;;;;;5029988;28;21060;-85
2022/03/17 00:19:26;;;;;;;50.83;19.43;;;6.40;97.30;;;;;;5030975;28;20280;-86
2022/03/17 00:21:52;;;;;;;41.87;17.90;;;6.40;97.30;;;;;;5030090;28;20196;-85
2022/03/17 00:24:17;;;;;;;44.23;19.00;;;6.40;97.30;;;;;;5029888;28;20520;-85
2022/03/17 00:26:43;;;;;;;46.80;19.17;;;6.40;97.30;;;;;;5030170;28;20185;-85
2022/03/17 00:29:09;;;;;;;45.60;19.90;;;6.40;97.30;;;;;;5030086;28;20187;-87
2022/03/17 00:31:39;;;;;;;54.40;19.60;;;6.40;97.30;;;;;;5030543;28;20187;-86
2022/03/17 00:34:06;;;;;;;42.93;18.40;;;6.40;97.30;;;;;;5029940;28;20231;-87
2022/03/17 00:36:34;;;;;;;52.83;20.97;;;6.40;97.30;;;;;;5046794;28;20506;-87
2022/03/17 00:39:00;;;;;;;43.00;17.50;;;6.30;97.30;;;;;;5048771;28;20453;-87
2022/03/17 00:41:25;;;;;;;42.07;18.43;;;6.20;97.30;;;;;;5051141;28;20425;-86
2022/03/17 00:43:51;;;;;;;39.47;17.83;;;6.20;97.30;;;;;;5049616;28;20435;-86
2022/03/17 00:46:17;;;;;;;47.33;18.57;;;6.10;97.30;;;;;;5050000;28;20176;-87
2022/03/17 00:48:42;;;;;;;42.20;17.57;;;6.10;97.30;;;;;;5049960;28;20184;-86
2022/03/17 00:51:08;;;;;;;46.37;18.70;;;6.00;97.30;;;;;;5050331;28;20237;-86
2022/03/17 00:53:34;;;;;;;41.80;17.23;;;6.00;97.30;;;;;;5049838;28;20435;-86
2022/03/17 00:55:59;;;;;;;48.43;19.47;;;5.90;97.30;;;;;;5051348;28;20215;-86
2022/03/17 00:58:25;;;;;;;41.80;17.80;;;5.90;97.30;;;;;;5049953;28;20215;-87
2022/03/17 01:00:50;;;;;;;47.13;18.20;;;5.90;97.30;;;;;;5049275;28;20232;-86
2022/03/17 01:03:16;;;;;;;43.73;18.60;;;5.90;97.30;;;;;;5049729;28;20682;-86
2022/03/17 01:05:41;;;;;;;50.40;19.83;;;5.90;97.30;;;;;;5049532;28;20241;-87
2022/03/17 01:08:08;;;;;;;42.50;18.07;;;5.80;97.30;;;;;;5049544;28;20179;-87
2022/03/17 01:10:34;;;;;;;47.93;18.63;;;5.80;97.30;;;;;;5049483;28;20182;-87
2022/03/17 01:13:02;;;;;;;41.33;17.07;;;5.80;97.30;;;;;;5050406;28;20825;-87
2022/03/17 01:15:29;;;;;;;49.07;20.77;;;5.70;97.30;;;;;;5049977;28;20207;-87
2022/03/17 01:17:55;;;;;;;45.90;18.57;;;5.70;97.30;;;;;;5048770;28;20531;-86
2022/03/17 01:20:20;;;;;;;46.40;19.43;;;5.70;97.30;;;;;;5048943;28;20418;-86
2022/03/17 01:22:47;;;;;;;46.53;18.27;;;5.70;97.30;;;;;;5037145;28;20717;-86
2022/03/17 01:25:13;;;;;;;48.40;19.43;;;5.60;97.30;;;;;;5029680;28;20180;-86
2022/03/17 01:27:39;;;;;;;58.93;20.30;;;5.60;97.30;;;;;;5029664;28;20506;-86
2022/03/17 01:30:09;;;;;;;52.57;20.80;;;5.60;97.30;;;;;;5029024;28;20184;-87
2022/03/17 01:32:37;;;;;;;48.80;19.87;;;5.50;97.30;;;;;;5028944;28;20203;-87
2022/03/17 01:35:03;;;;;;;47.20;17.43;;;5.50;97.30;;;;;;5028952;28;20434;-87
2022/03/17 01:37:29;;;;;;;41.17;19.20;;;5.50;97.30;;;;;;5030101;28;20470;-87
2022/03/17 01:39:54;;;;;;;47.30;18.77;;;5.50;97.30;;;;;;5029224;28;20423;-86
2022/03/17 01:42:20;;;;;;;46.47;18.67;;;5.50;97.30;;;;;;5029584;28;20184;-87
2022/03/17 01:44:46;;;;;;;49.37;19.17;;;5.50;97.30;;;;;;5030850;28;20540;-87
2022/03/17 01:47:29;;;;;;;46.07;19.37;;;5.50;97.30;;;;;;5030068;28;20185;-86
2022/03/17 01:50:01;;;;;;;49.33;20.43;;;5.60;97.30;;;;;;5029826;28;20187;-86
2022/03/17 01:52:27;;;;;;;49.70;18.50;;;5.60;97.30;;;;;;5029185;28;20427;-88
2022/03/17 01:54:55;;;;;;;50.27;20.30;;;5.60;97.30;;;;;;5031430;28;21116;-87
2022/03/17 01:57:22;;;;;;;51.50;20.73;;;5.60;97.30;;;;;;5033742;28;20204;-87
2022/03/17 01:59:49;;;;;;;52.70;19.63;;;5.60;97.30;;;;;;5032271;28;20426;-86
2022/03/17 02:02:15;;;;;;;50.97;20.10;;;5.60;97.30;;;;;;5031977;28;20423;-86
2022/03/17 02:04:41;;;;;;;53.43;20.13;;;5.60;97.30;;;;;;5032314;28;20434;-86
2022/03/17 02:07:07;;;;;;;55.43;19.70;;;5.70;97.30;;;;;;5032801;28;20769;-86
2022/03/17 02:09:34;;;;;;;54.67;19.60;;;5.70;97.30;;;;;;5032618;28;20430;-87
2022/03/17 02:15:00;;;;;;;46.57;19.50;;;5.70;97.30;;;;;;5034389;28;20417;-87
2022/03/17 02:17:27;;;;;;;45.40;18.87;;;5.80;97.30;;;;;;5032047;28;20487;-86
2022/03/17 02:19:53;;;;;;;54.90;20.73;;;5.80;97.30;;;;;;5033667;28;20419;-86
2022/03/17 02:22:21;;;;;;;58.17;20.90;;;5.80;97.30;;;;;;5032308;28;20526;-87
2022/03/17 02:27:45;;;;;;;57.67;22.03;;;5.80;97.30;;;;;;5033746;28;20942;-87
2022/03/17 02:30:13;;;;;;;57.83;23.70;;;5.90;97.30;;;;;;5033000;28;20840;-87
2022/03/17 02:32:39;;;;;;;55.43;21.33;;;5.90;97.30;;;;;;5032222;28;20454;-87
2022/03/17 02:35:14;;;;;;;56.63;22.70;;;5.90;97.30;;;;;;5034056;28;20506;-85
2022/03/17 02:37:40;;;;;;;52.77;20.90;;;5.90;97.30;;;;;;5033602;28;20473;-86
2022/03/17 02:40:11;;;;;;;55.43;22.30;;;5.90;97.30;;;;;;5032371;28;20423;-85
2022/03/17 02:42:37;;;;;;;52.70;21.47;;;5.90;97.30;;;;;;5033114;28;20196;-85
2022/03/17 02:45:05;;;;;;;59.03;22.10;;;5.90;97.30;;;;;;5032189;28;20822;-86
2022/03/17 02:47:31;;;;;;;49.03;20.43;;;5.90;97.30;;;;;;5031552;28;20423;-85
2022/03/17 02:49:57;;;;;;;52.53;21.07;;;6.00;97.30;;;;;;5032053;28;20430;-85
2022/03/17 02:52:24;;;;;;;59.30;22.80;;;6.00;97.30;;;;;;5031977;28;20419;-85
2022/03/17 02:54:51;;;;;;;61.13;22.97;;;6.00;97.30;;;;;;5031764;28;20458;-86
2022/03/17 02:57:17;;;;;;;52.83;21.50;;;6.00;97.30;;;;;;5032206;28;20815;-86
2022/03/17 02:59:43;;;;;;;52.60;22.17;;;6.00;97.30;;;;;;5032392;28;20415;-85
2022/03/17 03:02:09;;;;;;;56.63;22.20;;;6.00;97.30;;;;;;5032754;28;20419;-86
2022/03/17 03:04:35;;;;;;;60.30;21.80;;;6.00;97.30;;;;;;5031976;28;20196;-86
2022/03/17 03:07:04;;;;;;;49.83;20.60;;;6.00;97.30;;;;;;5032226;28;20183;-86
2022/03/17 03:09:30;;;;;;;66.30;23.60;;;6.00;97.30;;;;;;5032408;28;20176;-85
2022/03/17 03:11:57;;;;;;;52.47;20.87;;;6.00;97.30;;;;;;5030736;28;20963;-86
2022/03/17 03:14:23;;;;;;;50.53;21.03;;;6.00;97.30;;;;;;5032109;28;20208;-85
2022/03/17 03:16:50;;;;;;;62.87;23.37;;;6.00;97.30;;;;;;5031859;28;20474;-85
2022/03/17 03:19:15;;;;;;;57.07;23.10;;;6.00;97.30;;;;;;5032661;28;20789;-86
2022/03/17 03:21:43;;;;;;;54.63;22.33;;;5.90;97.30;;;;;;5031923;28;20445;-86
2022/03/17 03:24:10;;;;;;;49.50;21.30;;;5.90;97.30;;;;;;5032082;28;20196;-85
2022/03/17 03:26:36;;;;;;;54.50;21.23;;;5.90;97.30;;;;;;5032437;28;20426;-86
2022/03/17 03:29:07;;;;;;;63.63;21.17;;;5.80;97.30;;;;;;5031636;28;20783;-85
2022/03/17 03:31:34;;;;;;;56.93;21.47;;;5.80;97.30;;;;;;5031887;28;20177;-86
2022/03/17 03:34:00;;;;;;;52.40;20.87;;;5.70;97.30;;;;;;5031449;28;20466;-86
2022/03/17 03:39:10;;;;;;;62.17;21.03;;;5.60;97.30;;;;;;5033477;28;20493;-86
2022/03/17 03:41:36;;;;;;;49.00;20.20;;;5.60;97.30;;;;;;5031295;28;20471;-85
2022/03/17 03:44:02;;;;;;;56.67;21.40;;;5.60;97.30;;;;;;5031199;28;20455;-86
2022/03/17 03:46:28;;;;;;;59.63;22.27;;;5.50;97.30;;;;;;5031335;28;20177;-86
2022/03/17 03:48:54;;;;;;;57.00;22.97;;;5.50;97.30;;;;;;5031694;28;20979;-86
2022/03/17 03:51:19;;;;;;;44.60;19.50;;;5.50;97.30;;;;;;5031849;28;20645;-85
2022/03/17 03:56:31;;;;;;;51.80;20.10;;;5.50;97.30;;;;;;5033298;28;20180;-86
2022/03/17 03:58:58;;;;;;;59.37;22.10;;;5.40;97.30;;;;;;5031301;28;20427;-85
2022/03/17 04:01:25;;;;;;;61.33;22.00;;;5.40;97.30;;;;;;5031488;28;20411;-85
2022/03/17 04:03:52;;;;;;;63.30;23.23;;;5.40;97.30;;;;;;5031525;28;20466;-85
2022/03/17 04:06:18;;;;;;;50.30;20.87;;;5.40;97.30;;;;;;5030870;28;20415;-86
2022/03/17 04:08:43;;;;;;;60.20;23.30;;;5.40;97.30;;;;;;5031777;28;20480;-85
2022/03/17 04:11:09;;;;;;;55.20;20.17;;;5.40;97.30;;;;;;5031411;28;20176;-86
2022/03/17 04:13:35;;;;;;;53.60;20.63;;;5.30;97.30;;;;;;5031472;28;20254;-85
2022/03/17 04:16:01;;;;;;;58.17;22.63;;;5.30;97.30;;;;;;5031970;28;20185;-85
2022/03/17 04:18:26;;;;;;;61.03;22.50;;;5.30;97.30;;;;;;5030779;28;20334;-87
2022/03/17 04:20:52;;;;;;;54.70;21.90;;;5.30;97.30;;;;;;5031179;28;20212;-87
2022/03/17 04:23:18;;;;;;;59.10;21.30;;;5.20;97.30;;;;;;5030197;28;20222;-88
2022/03/17 04:25:43;;;;;;;49.03;20.77;;;5.20;97.30;;;;;;5030991;28;20211;-86
2022/03/17 04:28:09;;;;;;;55.20;20.87;;;5.20;97.30;;;;;;5030630;28;20708;-87
2022/03/17 04:30:36;;;;;;;59.73;22.27;;;5.20;97.30;;;;;;5031283;28;20594;-87
2022/03/17 04:33:02;;;;;;;58.03;21.37;;;5.20;97.30;;;;;;5030440;28;20237;-88
2022/03/17 04:35:27;;;;;;;55.87;22.77;;;5.20;97.30;;;;;;5030480;28;20784;-87
2022/03/17 04:37:53;;;;;;;56.43;21.03;;;5.20;97.30;;;;;;5030376;28;20467;-87
2022/03/17 04:40:19;;;;;;;57.37;23.50;;;5.20;97.30;;;;;;5032004;28;20638;-87
2022/03/17 04:42:44;;;;;;;60.60;21.87;;;5.10;97.30;;;;;;5030231;28;20223;-87
2022/03/17 04:45:10;;;;;;;54.93;20.97;;;5.10;97.30;;;;;;5030886;28;20546;-87
2022/03/17 04:47:35;;;;;;;65.20;22.30;;;5.10;97.30;;;;;;5029817;28;20339;-87
2022/03/17 04:50:01;;;;;;;58.90;22.50;;;5.10;97.30;;;;;;5030495;28;20626;-87
2022/03/17 04:55:27;;;;;;;57.73;20.70;;;5.10;97.30;;;;;;5029257;28;20666;-87
2022/03/17 04:57:53;;;;;;;60.87;22.23;;;5.10;97.30;;;;;;5029721;28;20473;-87
2022/03/17 05:00:18;;;;;;;62.40;23.20;;;5.10;97.30;;;;;;5030937;28;20176;-88
2022/03/17 05:02:44;;;;;;;59.87;22.00;;;5.10;97.30;;;;;;5030542;28;20290;-88
2022/03/17 05:05:09;;;;;;;56.10;23.07;;;5.10;97.30;;;;;;5030606;28;20184;-88
2022/03/17 05:07:35;;;;;;;53.17;21.77;;;5.10;97.30;;;;;;5029712;28;20192;-87
2022/03/17 05:10:01;;;;;;;61.07;23.60;;;5.10;97.30;;;;;;5030432;28;20275;-87
2022/03/17 05:12:27;;;;;;;61.93;23.20;;;5.20;97.30;;;;;;5030055;28;20184;-87
2022/03/17 05:14:53;;;;;;;72.37;23.37;;;5.20;97.30;;;;;;5030163;28;20485;-87
2022/03/17 05:17:18;;;;;;;63.57;24.30;;;5.20;97.30;;;;;;5029545;28;20263;-88
2022/03/17 05:19:44;;;;;;;60.57;24.40;;;5.20;97.30;;;;;;5029996;28;20191;-88
2022/03/17 05:22:09;;;;;;;62.33;24.07;;;5.20;97.30;;;;;;5030748;28;20612;-87
2022/03/17 05:24:35;;;;;;;60.10;23.50;;;5.30;97.30;;;;;;5030512;28;20303;-87
2022/03/17 05:27:01;;;;;;;64.10;24.20;;;5.30;97.30;;;;;;5030062;28;20180;-87
2022/03/17 05:29:27;;;;;;;60.57;23.73;;;5.30;97.30;;;;;;5029009;28;20458;-87
2022/03/17 05:31:53;;;;;;;58.67;23.63;;;5.30;97.30;;;;;;5030105;28;20180;-88
2022/03/17 05:34:19;;;;;;;58.20;23.13;;;5.30;97.30;;;;;;5030171;28;20843;-87
2022/03/17 05:36:45;;;;;;;59.57;22.60;;;5.30;97.30;;;;;;5029306;28;20187;-87
2022/03/17 05:39:10;;;;;;;59.93;22.93;;;5.30;97.30;;;;;;5029720;28;20176;-87
2022/03/17 05:41:36;;;;;;;64.33;24.33;;;5.30;97.30;;;;;;5029751;28;20482;-87
2022/03/17 05:44:01;;;;;;;59.70;24.03;;;5.30;97.30;;;;;;5029401;28;20564;-88
2022/03/17 05:46:27;;;;;;;63.23;25.30;;;5.30;97.30;;;;;;5029015;28;20263;-88
2022/03/17 05:48:53;;;;;;;59.97;25.00;;;5.30;97.30;;;;;;5029013;28;20180;-87
2022/03/17 05:51:19;;;;;;;58.30;24.40;;;5.30;97.30;;;;;;5029480;28;20761;-88
2022/03/17 05:53:45;;;;;;;61.37;24.03;;;5.30;97.30;;;;;;5029504;28;20518;-88
2022/03/17 05:56:10;;;;;;;54.10;23.57;;;5.40;97.30;;;;;;5029656;28;20498;-88
2022/03/17 05:58:36;;;;;;;59.63;23.50;;;5.40;97.30;;;;;;5030248;28;20204;-88
2022/03/17 06:01:02;;;;;;;62.00;23.57;;;5.40;97.30;;;;;;5029606;28;20187;-87
2022/03/17 06:03:28;;;;;;;68.30;25.07;;;5.40;97.30;;;;;;5029669;28;20197;-88
2022/03/17 06:05:54;;;;;;;69.17;26.03;;;5.40;97.30;;;;;;5029866;28;20510;-88
2022/03/17 06:08:19;;;;;;;60.90;24.20;;;5.50;97.30;;;;;;5030078;28;20864;-88
2022/03/17 06:10:45;;;;;;;62.83;25.40;;;5.50;97.30;;;;;;5029510;28;20267;-88
2022/03/17 06:13:11;;;;;;;65.03;25.40;;;5.50;97.30;;;;;;5029342;28;20232;-88
2022/03/17 06:15:36;;;;;;;67.20;26.80;;;5.60;97.30;;;;;;5030887;28;20528;-87
2022/03/17 06:18:05;;;;;;;67.43;25.73;;;5.60;97.30;;;;;;5029054;28;20236;-87
2022/03/17 06:20:32;;;;;;;61.97;25.13;;;5.60;97.30;;;;;;5029901;28;20188;-87
2022/03/17 06:23:00;;;;;;;72.00;27.87;;;5.60;97.30;;;;;;5028548;28;20442;-87
2022/03/17 06:25:28;;;;;;;71.30;26.23;;;5.70;97.30;;;;;;5030385;28;20554;-88
2022/03/17 06:27:54;;;;;;;69.20;26.80;;;5.70;97.30;;;;;;5028513;28;20416;-88
2022/03/17 06:30:21;;;;;;;57.60;24.63;;;5.70;97.30;;;;;;5029030;28;20895;-88
2022/03/17 06:32:47;;;;;;;61.50;24.93;;;5.80;97.30;;;;;;5029121;28;20204;-88
2022/03/17 06:35:17;;;;;;;64.63;25.70;;;5.80;97.30;;;;;;5029896;28;20416;-85
2022/03/17 06:37:53;;;;;;;66.50;24.63;;;5.80;97.30;;;;;;5030448;28;20554;-85
2022/03/17 06:40:21;;;;;;;64.97;24.60;;;5.80;97.30;;;;;;5029417;28;20450;-86
2022/03/17 06:42:47;;;;;;;59.37;23.63;;;5.90;97.30;;;;;;5032525;28;20979;-86
2022/03/17 06:45:14;;;;;;;68.50;25.67;;;5.90;97.30;;;;;;5033677;28;20415;-85
2022/03/17 06:47:40;;;;;;;65.13;25.47;;;5.90;97.30;;;;;;5032345;28;20514;-85
2022/03/17 06:50:08;;;;;;;68.73;25.90;;;5.90;97.30;;;;;;5032600;28;20434;-85
2022/03/17 06:52:34;;;;;;;67.13;26.13;;;6.00;97.30;;;;;;5032331;28;20514;-86
2022/03/17 06:54:59;;;;;;;73.13;27.47;;;6.00;97.30;;;;;;5032372;28;20616;-85
2022/03/17 06:57:25;;;;;;;67.27;25.97;;;6.00;97.30;;;;;;5032629;28;20266;-85
2022/03/17 06:59:51;;;;;;;72.03;26.63;;;6.10;97.30;;;;;;5032168;28;20193;-86
2022/03/17 07:02:17;;;;;;;62.10;26.23;;;6.10;97.30;;;;;;5031945;28;20628;-86
2022/03/17 07:04:43;;;;;;;66.97;25.73;;;6.20;97.30;;;;;;5031818;28;20173;-85
2022/03/17 07:07:10;;;;;;;61.83;25.47;;;6.20;97.30;;;;;;5031659;28;20415;-85
2022/03/17 07:09:37;;;;;;;58.73;26.20;;;6.30;97.30;;;;;;5033098;28;20434;-86
2022/03/17 07:12:03;;;;;;;56.73;24.23;;;6.40;97.30;;;;;;5034919;28;20451;-86
2022/03/17 07:14:29;;;;;;;67.63;25.80;;;6.40;97.30;;;;;;5034303;28;20443;-86
2022/03/17 07:16:55;;;;;;;62.97;26.77;;;6.40;97.30;;;;;;5041420;28;20523;-86
2022/03/17 07:19:20;;;;;;;71.57;26.80;;;6.50;97.30;;;;;;5051540;28;20438;-86
2022/03/17 07:21:46;;;;;;;62.67;24.33;;;6.50;97.30;;;;;;5035827;28;20263;-86
2022/03/17 07:24:12;;;;;;;64.73;26.57;;;6.60;97.30;;;;;;5031695;28;20224;-86
2022/03/17 07:26:40;;;;;;;64.83;25.70;;;6.60;97.30;;;;;;5031988;28;20198;-86
2022/03/17 07:29:06;;;;;;;72.13;28.23;;;6.60;97.30;;;;;;5031085;28;20307;-86
2022/03/17 07:31:32;;;;;;;61.07;25.80;;;6.70;97.30;;;;;;5030757;28;20912;-86
2022/03/17 07:33:59;;;;;;;65.50;26.40;;;6.70;97.30;;;;;;5032258;28;20459;-86
2022/03/17 07:36:26;;;;;;;66.70;26.20;;;6.80;97.30;;;;;;5031419;28;20423;-86
2022/03/17 07:38:54;;;;;;;71.00;27.13;;;6.80;97.30;;;;;;5031686;28;20984;-86
2022/03/17 07:41:19;;;;;;;61.07;25.87;;;6.80;97.30;;;;;;5031491;28;20416;-86
2022/03/17 07:43:46;;;;;;;68.53;28.33;;;6.90;97.30;;;;;;5031893;28;20427;-86
2022/03/17 07:46:13;;;;;;;74.60;27.50;;;6.90;97.30;;;;;;5029951;28;20527;-86
2022/03/17 07:48:38;;;;;;;69.33;25.97;;;7.00;97.30;;;;;;5031402;28;20510;-86
2022/03/17 07:51:04;;;;;;;64.53;26.50;;;7.00;97.30;;;;;;5031123;28;20509;-86
2022/03/17 07:53:30;;;;;;;67.57;25.73;;;7.10;97.30;;;;;;5031950;28;20881;-86
2022/03/17 07:55:56;;;;;;;68.47;27.90;;;7.10;97.30;;;;;;5031597;28;20184;-86
2022/03/17 07:58:26;;;;;;;63.83;25.27;;;7.20;97.30;;;;;;5030748;28;20678;-86
2022/03/17 08:00:56;;;;;;;66.50;26.13;;;7.20;97.30;;;;;;5031508;28;20442;-86
2022/03/17 08:03:22;;;;;;;65.27;26.27;;;7.30;97.30;;;;;;5048800;28;20446;-86
2022/03/17 08:05:49;;;;;;;59.83;24.97;;;7.40;97.30;;;;;;5052277;28;20406;-85
2022/03/17 08:08:15;;;;;;;69.10;25.63;;;7.40;97.30;;;;;;5053420;28;20822;-86
2022/03/17 08:10:42;;;;;;;61.70;26.40;;;7.50;97.30;;;;;;5051767;28;20410;-84
2022/03/17 08:13:09;;;;;;;64.67;26.07;;;7.50;97.30;;;;;;5059242;28;20430;-85
2022/03/17 08:15:36;;;;;;;60.90;25.10;;;7.60;97.30;;;;;;5057744;28;20455;-85
2022/03/17 08:18:02;;;;;;;68.30;26.43;;;7.70;97.30;;;;;;5058718;28;20473;-85
2022/03/17 08:20:27;;;;;;;59.27;24.97;;;7.70;97.30;;;;;;5058965;28;20422;-84
2022/03/17 08:22:53;;;;;;;59.27;25.70;;;7.80;97.30;;;;;;5045614;28;20442;-85
2022/03/17 08:25:19;;;;;;;65.13;25.73;;;7.90;97.30;;;;;;5040346;28;20175;-85
2022/03/17 08:27:44;;;;;;;60.10;26.07;;;7.90;97.30;;;;;;5039797;28;20185;-84
2022/03/17 08:30:11;;;;;;;57.87;25.20;;;8.00;97.30;;;;;;5039554;28;20535;-84
2022/03/17 08:32:38;;;;;;;69.03;27.70;;;8.10;97.30;;;;;;5038880;28;20196;-86
2022/03/17 08:35:05;;;;;;;63.23;26.70;;;8.10;97.30;;;;;;5038472;28;20411;-85
2022/03/17 08:37:30;;;;;;;58.80;24.70;;;8.20;97.30;;;;;;5037567;28;20506;-84
2022/03/17 08:39:56;;;;;;;67.00;27.87;;;8.30;97.30;;;;;;5040109;28;20412;-86
2022/03/17 08:42:21;;;;;;;56.43;23.00;;;8.30;97.30;;;;;;5040503;28;20596;-85
2022/03/17 08:44:48;;;;;;;64.53;26.70;;;8.40;97.30;;;;;;5031876;28;20215;-89
2022/03/17 08:49:58;;;;;;;70.10;27.80;;;8.50;97.30;;;;;;5036854;28;20417;-84
2022/03/17 08:52:24;;;;;;;64.77;27.50;;;8.60;97.30;;;;;;5037119;28;20447;-84
2022/03/17 08:54:50;;;;;;;60.07;25.60;;;8.60;97.30;;;;;;5037251;28;20192;-86
2022/03/17 08:57:15;;;;;;;61.30;25.53;;;8.70;97.30;;;;;;5032139;28;20193;-85
2022/03/17 08:59:41;;;;;;;64.87;24.27;;;8.80;97.30;;;;;;5028341;28;20807;-85
2022/03/17 09:02:11;;;;;;;65.77;25.70;;;8.80;97.30;;;;;;5029449;28;20188;-85
2022/03/17 09:04:37;;;;;;;61.50;25.83;;;8.90;97.30;;;;;;5024199;28;20196;-85
2022/03/17 09:07:03;;;;;;;69.43;27.30;;;8.90;97.30;;;;;;5028012;28;20415;-85
2022/03/17 09:09:38;;;;;;;63.10;27.10;;;9.00;97.30;;;;;;5027348;28;20475;-85
2022/03/17 09:12:06;;;;;;;61.20;26.63;;;9.10;97.30;;;;;;5027940;28;20419;-85
2022/03/17 09:14:33;;;;;;;65.10;27.67;;;9.10;97.30;;;;;;5029668;28;20508;-86
2022/03/17 09:16:59;;;;;;;61.63;26.23;;;9.20;97.30;;;;;;5025313;28;20469;-85
2022/03/17 09:19:25;;;;;;;65.27;28.23;;;9.30;97.30;;;;;;5026055;28;20419;-85
2022/03/17 09:21:51;;;;;;;63.27;25.60;;;9.40;97.30;;;;;;5026840;28;20208;-85
2022/03/17 09:24:17;;;;;;;61.60;26.50;;;9.50;97.30;;;;;;5028611;28;20446;-85
2022/03/17 09:26:43;;;;;;;62.87;28.10;;;9.50;97.30;;;;;;5028472;28;20415;-85
2022/03/17 09:29:08;;;;;;;65.73;28.33;;;9.60;97.30;;;;;;5028223;28;20227;-86
2022/03/17 09:31:35;;;;;;;68.30;28.20;;;9.60;97.30;;;;;;5027513;28;20168;-86
2022/03/17 09:34:01;;;;;;;71.53;29.70;;;9.70;97.30;;;;;;5028846;28;20184;-86
2022/03/17 09:36:27;;;;;;;66.63;26.37;;;9.70;97.30;;;;;;5029067;28;20408;-85
2022/03/17 09:41:36;;;;;;;64.77;27.77;;;9.90;97.30;;;;;;5030277;28;20223;-86
2022/03/17 09:44:03;;;;;;;66.83;28.30;;;9.90;97.30;;;;;;5028761;28;20467;-86
2022/03/17 09:46:31;;;;;;;64.30;27.03;;;9.90;97.30;;;;;;5028634;28;20181;-85
2022/03/17 09:48:57;;;;;;;64.73;27.43;;;9.90;97.30;;;;;;5028873;28;20454;-87
2022/03/17 09:51:25;;;;;;;65.13;28.63;;;10.00;97.30;;;;;;5039717;28;20445;-86
2022/03/17 09:53:53;;;;;;;65.77;28.40;;;10.00;97.30;;;;;;5048827;28;20444;-86
2022/03/17 09:56:23;;;;;;;57.43;26.77;;;10.00;97.30;;;;;;5048936;28;20414;-86
2022/03/17 09:58:56;;;;;;;66.67;28.20;;;10.10;97.30;;;;;;5048370;28;20458;-86
2022/03/17 10:01:26;;;;;;;62.93;27.83;;;10.10;97.30;;;;;;5048311;28;20442;-86
2022/03/17 10:03:58;;;;;;;62.97;26.73;;;10.20;97.30;;;;;;5048210;28;20441;-86
2022/03/17 10:06:24;;;;;;;63.23;28.63;;;10.20;97.30;;;;;;5048869;28;20421;-86
2022/03/17 10:08:50;;;;;;;62.47;27.83;;;10.20;97.30;;;;;;5049205;28;20797;-86
2022/03/17 10:11:23;;;;;;;67.13;28.53;;;10.20;97.30;;;;;;5048778;28;20426;-86
2022/03/17 10:13:48;;;;;;;64.97;27.60;;;10.30;97.30;;;;;;5048629;28;20529;-86
2022/03/17 10:16:20;;;;;;;64.53;28.27;;;10.30;97.30;;;;;;5049945;28;20524;-86
2022/03/17 10:18:46;;;;;;;67.20;28.87;;;10.40;97.30;;;;;;5041225;28;20224;-85
2022/03/17 10:21:13;;;;;;;74.73;30.87;;;10.50;97.10;;;;;;5032258;28;20418;-85
2022/03/17 10:23:49;;;;;;;65.63;28.97;;;10.60;96.80;;;;;;5031816;28;20496;-86
2022/03/17 10:26:46;;;;;;;64.43;29.70;;;10.70;96.60;;;;;;5032484;28;20447;-85
2022/03/17 10:29:22;;;;;;;57.90;26.70;;;10.80;96.60;;;;;;5032616;28;20449;-86
2022/03/17 10:31:54;;;;;;;63.23;29.70;;;10.90;96.40;;;;;;5032534;28;20987;-85
2022/03/17 10:34:21;;;;;;;69.70;28.83;;;11.10;95.90;;;;;;5032079;28;20427;-86
2022/03/17 10:36:48;;;;;;;66.53;29.53;;;11.20;95.50;;;;;;5032554;28;20701;-86
2022/03/17 10:39:14;;;;;;;66.23;28.97;;;11.30;95.10;;;;;;5032383;28;20408;-86
2022/03/17 10:41:46;;;;;;;69.10;31.47;;;11.40;95.10;;;;;;5032854;28;20510;-86
2022/03/17 10:44:16;;;;;;;69.40;28.90;;;11.40;95.20;;;;;;5031557;28;20497;-85
2022/03/17 10:47:01;;;;;;;62.33;28.53;;;11.40;94.70;;;;;;5031842;28;21060;-85
2022/03/17 10:49:30;;;;;;;71.83;30.97;;;11.40;95.10;;;;;;5030675;28;20486;-85
2022/03/17 10:51:57;;;;;;;62.33;29.67;;;11.50;95.50;;;;;;5031544;28;20411;-85
2022/03/17 10:54:23;;;;;;;68.77;29.90;;;11.60;95.10;;;;;;5031337;28;20470;-85
2022/03/17 10:56:59;;;;;;;63.07;29.00;;;11.60;94.70;;;;;;5031520;28;20470;-85
2022/03/17 10:59:39;;;;;;;63.60;29.93;;;11.60;94.20;;;;;;5034884;28;20415;-85
2022/03/17 11:02:08;;;;;;;62.10;29.00;;;11.70;94.90;;;;;;5031259;28;20429;-86
2022/03/17 11:04:39;;;;;;;70.67;29.90;;;11.70;94.20;;;;;;5031799;28;20943;-86
2022/03/17 11:07:07;;;;;;;71.20;31.80;;;11.80;94.00;;;;;;5031620;28;20446;-86
2022/03/17 11:09:38;;;;;;;64.50;32.00;;;11.90;94.10;;;;;;5029693;28;20838;-86
2022/03/17 11:12:07;;;;;;;63.63;30.20;;;12.00;94.20;;;;;;5030450;28;20444;-87
2022/03/17 11:14:33;;;;;;;64.83;30.70;;;12.10;93.90;;;;;;5030635;28;21118;-86
2022/03/17 11:17:02;;;;;;;66.20;29.47;;;12.10;93.20;;;;;;5030107;28;20407;-86
2022/03/17 11:19:28;;;;;;;62.53;28.37;;;12.20;93.60;;;;;;5031131;28;20615;-86
2022/03/17 11:22:09;;;;;;;69.93;30.83;;;12.30;92.70;;;;;;5031478;28;20534;-86
2022/03/17 11:24:37;;;;;;;68.43;30.37;;;12.50;92.80;;;;;;5032725;28;20427;-85
2022/03/17 11:27:12;;;;;;;61.67;28.87;;;12.60;92.50;;;;;;5064139;28;20434;-86
2022/03/17 11:29:48;;;;;;;68.13;30.27;;;12.70;91.90;;;;;;5028252;28;20963;-85
2022/03/17 11:32:29;;;;;;;63.07;30.37;;;12.70;91.30;;;;;;5028299;28;20929;-86
2022/03/17 11:35:29;;;;;;;62.10;29.13;;;12.80;91.40;;;;;;5030741;28;20419;-85
2022/03/17 11:38:18;;;;;;;64.73;29.97;;;13.00;91.10;;;;;;5031453;28;20569;-86
2022/03/17 11:41:17;;;;;;;60.20;30.50;;;13.00;89.70;;;;;;5029169;28;20429;-86
2022/03/17 11:43:46;;;;;;;62.17;28.17;;;12.90;89.20;;;;;;5020283;28;20447;-87
2022/03/17 11:46:20;;;;;;;68.53;32.50;;;12.90;89.50;;;;;;5029874;28;20627;-87
2022/03/17 11:48:50;;;;;;;64.03;29.03;;;12.80;89.10;;;;;;5030074;28;20461;-86
2022/03/17 11:51:16;;;;;;;59.20;28.40;;;12.90;89.70;;;;;;5027731;28;20832;-86
2022/03/17 11:53:50;;;;;;;71.40;31.10;;;12.90;89.90;;;;;;5029881;28;20454;-87
2022/03/17 11:56:41;;;;;;;68.20;31.30;;;13.00;90.20;;;;;;5030311;28;20430;-86
2022/03/17 11:59:07;;;;;;;58.10;29.17;;;13.10;89.30;;;;;;5029531;28;20486;-87
2022/03/17 12:01:39;;;;;;;63.70;29.33;;;13.20;88.30;;;;;;5033418;28;20426;-86
2022/03/17 12:04:05;;;;;;;62.37;29.90;;;13.10;88.00;;;;;;5031415;28;20469;-86
2022/03/17 12:06:33;;;;;;;63.40;30.60;;;13.10;88.30;;;;;;5035673;28;20935;-86
2022/03/17 12:09:08;;;;;;;63.50;29.47;;;13.20;88.20;;;;;;5027187;28;20461;-86
2022/03/17 12:11:42;;;;;;;60.87;30.40;;;13.30;88.80;;;;;;5028298;28;20475;-87
2022/03/17 12:16:46;;;;;;;68.30;31.47;;;13.40;88.10;;;;;;5027767;28;20433;-87
2022/03/17 12:19:48;;;;;;;67.70;31.90;;;13.50;88.40;;;;;;5030236;28;20479;-86
2022/03/17 12:22:35;;;;;;;67.80;29.77;;;13.50;88.20;;;;;;5017171;28;20787;-86
2022/03/17 12:25:19;;;;;;;67.20;30.23;;;13.50;87.80;;;;;;5030357;28;20426;-86
2022/03/17 12:27:53;;;;;;;59.13;28.73;;;13.50;87.80;;;;;;5026147;28;20431;-86
2022/03/17 12:30:19;;;;;;;63.30;29.43;;;13.50;87.80;;;;;;5032891;28;20497;-88
2022/03/17 12:32:56;;;;;;;57.90;28.00;;;13.50;87.60;;;;;;5028752;28;20964;-86
2022/03/17 12:35:27;;;;;;;62.47;30.57;;;13.50;87.20;;;;;;5027993;28;20415;-87
2022/03/17 12:38:05;;;;;;;60.07;30.00;;;13.50;87.10;;;;;;5029171;28;20477;-86
2022/03/17 12:40:43;;;;;;;66.67;29.57;;;13.50;86.30;;;;;;5029010;28;20431;-86
2022/03/17 12:43:17;;;;;;;59.70;29.33;;;13.40;86.10;;;;;;5029579;28;20466;-86
2022/03/17 12:45:47;;;;;;;59.80;28.93;;;13.50;86.40;;;;;;5029657;28;20419;-86
2022/03/17 12:48:13;;;;;;;61.87;30.97;;;13.50;86.70;;;;;;5024937;28;20442;-86
2022/03/17 12:50:38;;;;;;;65.27;31.33;;;13.60;87.20;;;;;;5030073;28;20450;-86
2022/03/17 12:53:04;;;;;;;63.17;31.00;;;13.70;87.50;;;;;;5029160;28;20474;-86
2022/03/17 12:55:30;;;;;;;62.67;29.90;;;13.70;87.40;;;;;;5027998;28;20271;-87
2022/03/17 12:57:56;;;;;;;68.10;31.50;;;13.70;85.70;;;;;;5028655;28;20623;-86
2022/03/17 13:00:23;;;;;;;67.63;31.60;;;13.60;86.30;;;;;;5028541;28;20638;-86